Deweyville, Texas
Current Conditions -  °F | °C
As of 9:55 PM on Tuesday 27 Jan 2015 (Local Time) from KORG Reporting Station
Clear Clear  
Wind Chill: 10°   Ceiling: Unl
Heat Index: 10°   Visibility: 10mi
Dew Point:   Wind: 0mph
Humidity: 95%   Direction: NA
Pressure: 30.17"   Gusts: NA
Location:  30.3°N, 93.74°W
Report Text: KORG 280355Z AUTO 00000KT 10SM CLR 10/09 A3017 RMK AO2 T00960089
Loading
Personal Weather Stations






























Interactive Weather Map New forecast layout! Learn more

10-Day Weather Forecast

Advertisements
Track Severe Weather on mobile